Time;durP1;ratioP1;P1;durP2;ratioP2;P2;SDS_P1;SDS_P2;PMS_P1;PMS_P2;Temp;Humidity;BMP_temperature;BMP_pressure;BME280_temperature;BME280_humidity;BME280_pressure;Samples;Min_cycle;Max_cycle;Signal;HPM_P1;HPM_P2
2022/10/17 00:01:38;;;;;;;47.33;23.38;;;;;;;0.53;100.00;101742.57;1717844;83;21506;-65
2022/10/17 00:04:04;;;;;;;41.50;21.80;;;;;;;0.49;100.00;101742.01;1717909;83;21628;-65
2022/10/17 00:06:32;;;;;;;41.70;21.57;;;;;;;0.49;100.00;101747.20;1718093;83;21029;-65
2022/10/17 00:09:00;;;;;;;42.50;20.85;;;;;;;0.48;100.00;101748.44;1718165;83;21093;-65
2022/10/17 00:11:27;;;;;;;45.23;23.02;;;;;;;0.48;100.00;101753.19;1718220;83;21581;-64
2022/10/17 00:13:54;;;;;;;42.67;22.37;;;;;;;0.48;100.00;101753.19;1718123;83;21451;-65
2022/10/17 00:16:28;;;;;;;39.35;19.70;;;;;;;0.49;100.00;101751.08;1718172;83;21080;-65
2022/10/17 00:18:54;;;;;;;38.13;18.62;;;;;;;0.48;100.00;101751.90;1718227;83;21052;-65
2022/10/17 00:21:21;;;;;;;33.73;17.17;;;;;;;0.48;100.00;101755.78;1718228;83;21057;-65
2022/10/17 00:23:49;;;;;;;34.43;16.25;;;;;;;0.43;100.00;101748.30;1718266;83;21090;-65
2022/10/17 00:26:16;;;;;;;30.85;16.40;;;;;;;0.44;100.00;101755.65;1718504;83;22084;-65
2022/10/17 00:28:48;;;;;;;36.10;15.98;;;;;;;0.43;100.00;101753.48;1718157;83;21494;-65
2022/10/17 00:31:19;;;;;;;27.37;15.40;;;;;;;0.43;100.00;101757.79;1718433;83;21049;-64
2022/10/17 00:33:45;;;;;;;32.33;16.32;;;;;;;0.39;100.00;101758.09;1717882;83;21112;-63
2022/10/17 00:36:15;;;;;;;31.82;15.95;;;;;;;0.39;100.00;101767.17;1718038;83;21080;-65
2022/10/17 00:38:44;;;;;;;33.42;18.12;;;;;;;0.35;100.00;101762.75;1718037;83;21231;-64
2022/10/17 00:41:13;;;;;;;38.65;20.85;;;;;;;0.33;100.00;101760.10;1718073;83;21518;-64
2022/10/17 00:44:06;;;;;;;41.70;20.77;;;;;;;0.29;100.00;101753.05;1717849;83;21069;-65
2022/10/17 00:46:37;;;;;;;43.42;22.02;;;;;;;0.26;100.00;101754.69;1718163;83;21088;-65
2022/10/17 00:49:08;;;;;;;45.20;24.92;;;;;;;0.22;100.00;101760.60;1717942;83;21128;-64
2022/10/17 00:51:45;;;;;;;42.30;21.17;;;;;;;0.19;100.00;101760.97;1718269;83;21220;-65
2022/10/17 00:54:14;;;;;;;33.53;17.80;;;;;;;0.14;100.00;101761.25;1691628;83;21033;-65
2022/10/17 00:56:42;;;;;;;34.40;17.57;;;;;;;0.12;100.00;101765.50;1696903;83;21053;-64
2022/10/17 00:59:10;;;;;;;34.45;17.50;;;;;;;0.09;100.00;101755.05;1725548;81;21073;-64
2022/10/17 01:01:39;;;;;;;38.78;17.00;;;;;;;0.09;100.00;101753.75;1745901;81;21097;-64
2022/10/17 01:04:05;;;;;;;35.48;18.87;;;;;;;0.09;100.00;101752.45;1755503;81;21185;-64
2022/10/17 01:06:32;;;;;;;41.37;21.02;;;;;;;0.07;100.00;101748.94;1755480;81;20970;-64
2022/10/17 01:10:08;;;;;;;42.10;23.03;;;;;;;-0.03;100.00;101754.63;1818675;78;22598;-65
2022/10/17 01:12:44;;;;;;;42.35;20.60;;;;;;;-0.07;100.00;101757.95;1787549;80;21011;-64
2022/10/17 01:15:40;;;;;;;34.95;19.45;;;;;;;-0.04;100.00;101758.94;1787661;80;21017;-65
2022/10/17 01:18:20;;;;;;;38.42;19.37;;;;;;;-0.06;100.00;101757.14;1752379;81;21624;-65
2022/10/17 01:20:59;;;;;;;40.30;20.15;;;;;;;-0.04;100.00;101752.89;1787376;80;21049;-66
2022/10/17 01:24:06;;;;;;;40.65;20.05;;;;;;;-0.02;100.00;101748.64;1752658;81;21013;-64
2022/10/17 01:27:05;;;;;;;47.58;22.58;;;;;;;0.04;100.00;101744.93;1787684;80;21092;-65
2022/10/17 01:29:52;;;;;;;51.08;24.40;;;;;;;0.00;100.00;101740.50;1752565;81;21194;-64
2022/10/17 01:32:39;;;;;;;47.50;23.18;;;;;;;0.04;100.00;101741.05;1734878;81;21092;-65
2022/10/17 01:35:36;;;;;;;53.95;23.65;;;;;;;0.09;100.00;101745.98;1759138;80;20997;-65
2022/10/17 01:38:17;;;;;;;50.73;24.85;;;;;;;0.13;100.00;101738.74;1749984;82;21543;-64
2022/10/17 01:40:50;;;;;;;49.05;24.37;;;;;;;0.19;100.00;101737.65;1787565;80;21588;-65
2022/10/17 01:43:25;;;;;;;57.00;25.97;;;;;;;0.31;100.00;101744.05;1748756;81;21167;-65
2022/10/17 01:46:02;;;;;;;52.70;24.70;;;;;;;0.33;100.00;101741.09;1752714;81;21088;-64
2022/10/17 01:48:34;;;;;;;48.58;24.00;;;;;;;0.39;100.00;101743.84;1787446;80;21096;-64
2022/10/17 01:51:10;;;;;;;49.85;26.10;;;;;;;0.45;100.00;101744.04;1787682;80;21100;-65
2022/10/17 01:53:42;;;;;;;48.55;24.25;;;;;;;0.50;100.00;101741.16;1753020;81;21120;-65
2022/10/17 01:56:08;;;;;;;46.37;23.83;;;;;;;0.56;100.00;101740.06;1787618;80;21253;-65
2022/10/17 01:58:40;;;;;;;53.10;24.77;;;;;;;0.57;100.00;101748.71;1787564;80;21072;-65
2022/10/17 02:01:09;;;;;;;49.63;24.63;;;;;;;0.65;100.00;101748.95;1738504;81;21072;-65
2022/10/17 02:03:38;;;;;;;52.78;24.98;;;;;;;0.63;100.00;101746.31;1722493;83;21143;-64
2022/10/17 02:06:05;;;;;;;50.30;24.72;;;;;;;0.65;100.00;101745.94;1756056;81;21056;-65
2022/10/17 02:08:48;;;;;;;47.45;23.52;;;;;;;0.61;100.00;101746.25;1721133;83;21631;-65
2022/10/17 02:11:20;;;;;;;48.68;26.27;;;;;;;0.60;100.00;101739.33;1694912;84;21072;-65
2022/10/17 02:14:05;;;;;;;48.02;25.00;;;;;;;0.55;100.00;101729.24;1725364;83;21134;-65
2022/10/17 02:17:02;;;;;;;45.67;22.77;;;;;;;0.55;100.00;101721.86;1694867;84;21112;-64
2022/10/17 02:19:44;;;;;;;47.75;24.15;;;;;;;0.59;100.00;101714.21;1725306;83;21125;-66
2022/10/17 02:22:46;;;;;;;48.23;24.37;;;;;;;0.67;100.00;101720.94;1727854;82;22093;-65
2022/10/17 02:25:37;;;;;;;47.25;23.47;;;;;;;0.67;100.00;101722.23;1725237;83;21073;-65
2022/10/17 02:28:28;;;;;;;40.95;20.45;;;;;;;0.63;100.00;101716.06;1724813;83;21646;-64
2022/10/17 02:31:06;;;;;;;42.70;22.37;;;;;;;0.63;100.00;101728.16;1694674;84;21111;-65
2022/10/17 02:33:48;;;;;;;48.90;24.00;;;;;;;0.60;100.00;101726.36;1724402;81;21104;-65
2022/10/17 02:36:19;;;;;;;41.88;21.35;;;;;;;0.65;100.00;101726.92;1713245;83;21100;-65
2022/10/17 02:38:45;;;;;;;43.28;22.70;;;;;;;0.63;100.00;101729.03;1724746;83;21092;-66
2022/10/17 02:41:15;;;;;;;42.33;22.42;;;;;;;0.68;100.00;101734.77;1725056;83;21005;-65
2022/10/17 02:43:44;;;;;;;37.65;20.20;;;;;;;0.69;100.00;101732.63;1727899;83;21092;-64
2022/10/17 02:46:19;;;;;;;39.38;19.67;;;;;;;0.68;100.00;101725.70;1751227;81;21053;-64
2022/10/17 02:49:02;;;;;;;49.00;23.75;;;;;;;0.68;100.00;101725.70;1722553;83;21158;-65
2022/10/17 02:51:37;;;;;;;46.65;23.02;;;;;;;0.70;100.00;101721.44;1696929;83;21103;-65
2022/10/17 02:54:22;;;;;;;48.50;23.62;;;;;;;0.70;100.00;101721.44;1754757;81;21068;-64
2022/10/17 02:56:54;;;;;;;47.05;22.25;;;;;;;0.73;100.00;101730.17;1723335;83;21592;-65
2022/10/17 02:59:22;;;;;;;47.75;23.38;;;;;;;0.78;100.00;101729.00;1728062;81;21053;-64
2022/10/17 03:01:50;;;;;;;53.20;25.27;;;;;;;0.84;100.00;101739.14;1674219;84;21239;-65
2022/10/17 03:04:17;;;;;;;49.73;24.50;;;;;;;0.86;100.00;101735.30;1724888;83;21044;-64
2022/10/17 03:06:44;;;;;;;43.83;23.20;;;;;;;0.91;100.00;101745.37;1727931;83;21127;-65
2022/10/17 03:09:13;;;;;;;38.90;19.70;;;;;;;0.91;100.00;101745.37;1724924;83;21066;-64
2022/10/17 03:11:41;;;;;;;45.40;22.65;;;;;;;0.93;100.00;101751.50;1724980;83;21556;-65
2022/10/17 03:14:09;;;;;;;39.48;20.95;;;;;;;0.95;100.00;101753.72;1727739;83;21219;-63
2022/10/17 03:16:36;;;;;;;45.33;22.98;;;;;;;0.98;100.00;101758.98;1725015;83;21001;-65
2022/10/17 03:19:03;;;;;;;32.93;17.65;;;;;;;1.01;100.00;101764.67;1724939;83;21150;-65
2022/10/17 03:21:32;;;;;;;30.57;17.27;;;;;;;1.01;100.00;101764.67;1727689;82;21026;-64
2022/10/17 03:23:59;;;;;;;42.70;21.50;;;;;;;0.99;100.00;101756.87;1724870;83;21061;-66
2022/10/17 03:26:26;;;;;;;38.02;18.17;;;;;;;1.04;100.00;101765.66;1725372;83;21105;-65
2022/10/17 03:28:52;;;;;;;37.20;19.52;;;;;;;1.07;100.00;101773.06;1727508;82;21041;-66
2022/10/17 03:31:19;;;;;;;43.80;21.77;;;;;;;1.07;100.00;101776.53;1725140;83;21061;-65
2022/10/17 03:33:46;;;;;;;36.65;20.70;;;;;;;1.09;100.00;101776.59;1724757;83;21079;-64
2022/10/17 03:36:16;;;;;;;40.08;20.52;;;;;;;1.08;100.00;101783.47;1727428;83;21045;-65
2022/10/17 03:38:45;;;;;;;41.23;21.93;;;;;;;1.07;100.00;101789.93;1724736;83;21128;-65
2022/10/17 03:41:12;;;;;;;35.00;19.02;;;;;;;1.04;100.00;101789.00;1724540;83;21079;-64
2022/10/17 03:43:41;;;;;;;35.33;18.57;;;;;;;1.04;100.00;101798.52;1727245;82;21573;-65
2022/10/17 03:46:07;;;;;;;44.65;18.95;;;;;;;1.05;100.00;101798.53;1748985;81;21597;-65
2022/10/17 03:48:34;;;;;;;42.70;20.70;;;;;;;1.00;100.00;101793.64;1717353;83;21081;-65
2022/10/17 03:51:07;;;;;;;37.13;18.12;;;;;;;0.99;100.00;101797.47;1717699;83;21110;-65
2022/10/17 03:53:35;;;;;;;34.80;17.35;;;;;;;0.89;100.00;101791.14;1726263;83;21128;-66
2022/10/17 03:56:22;;;;;;;30.43;14.80;;;;;;;0.89;100.00;101791.14;1753217;81;21592;-65
2022/10/17 03:58:51;;;;;;;37.42;15.43;;;;;;;0.86;100.00;101794.09;1745386;81;21088;-66
2022/10/17 04:01:18;;;;;;;29.52;16.17;;;;;;;0.77;100.00;101786.48;1753912;81;21050;-65
2022/10/17 04:03:51;;;;;;;31.10;16.00;;;;;;;0.69;100.00;101786.69;1753416;81;21117;-66
2022/10/17 04:06:18;;;;;;;34.92;16.57;;;;;;;0.62;100.00;101786.92;1753706;81;21065;-64
2022/10/17 04:08:46;;;;;;;35.23;18.07;;;;;;;0.58;100.00;101794.14;1753625;81;21006;-67
2022/10/17 04:11:17;;;;;;;37.67;18.73;;;;;;;0.53;100.00;101786.64;1753123;81;21061;-64
2022/10/17 04:13:44;;;;;;;39.15;21.00;;;;;;;0.48;100.00;101786.89;1753831;81;21597;-67
2022/10/17 04:16:15;;;;;;;49.93;23.32;;;;;;;0.47;100.00;101795.52;1753636;81;21092;-67
2022/10/17 04:19:03;;;;;;;39.65;21.00;;;;;;;0.47;100.00;101795.52;1673297;85;21096;-67
2022/10/17 04:21:31;;;;;;;45.05;21.10;;;;;;;0.49;100.00;101791.27;1724035;83;21116;-65
2022/10/17 04:24:00;;;;;;;35.78;20.37;;;;;;;0.53;100.00;101790.53;1723752;83;21036;-66
2022/10/17 04:26:32;;;;;;;46.80;19.62;;;;;;;0.55;100.00;101785.38;1722805;83;21104;-66
2022/10/17 04:29:01;;;;;;;40.48;20.08;;;;;;;0.54;100.00;101787.09;1724278;83;21864;-65
2022/10/17 04:31:27;;;;;;;40.90;19.20;;;;;;;0.56;100.00;101777.66;1724380;83;21053;-64
2022/10/17 04:34:01;;;;;;;39.63;19.85;;;;;;;0.55;100.00;101779.80;1722191;83;21525;-65
2022/10/17 04:36:29;;;;;;;39.00;18.65;;;;;;;0.59;100.00;101775.56;1724423;83;21044;-65
2022/10/17 04:38:56;;;;;;;39.75;19.92;;;;;;;0.59;100.00;101773.84;1724658;83;21073;-65
2022/10/17 04:41:24;;;;;;;40.28;19.25;;;;;;;0.65;100.00;101774.89;1724427;83;21466;-65
2022/10/17 04:43:51;;;;;;;43.42;21.57;;;;;;;0.69;100.00;101784.09;1724201;83;21060;-64
2022/10/17 04:46:19;;;;;;;48.42;22.77;;;;;;;0.73;100.00;101791.53;1724394;83;21084;-66
2022/10/17 04:48:47;;;;;;;39.42;21.75;;;;;;;0.75;100.00;101796.35;1724299;83;21088;-66
2022/10/17 04:51:17;;;;;;;44.38;23.30;;;;;;;0.75;100.00;101798.95;1724577;83;21066;-65
2022/10/17 04:54:00;;;;;;;43.50;21.93;;;;;;;0.73;100.00;101795.42;1712397;83;21061;-66
2022/10/17 04:56:27;;;;;;;39.63;20.10;;;;;;;0.75;100.00;101787.27;1724228;83;21044;-66
2022/10/17 04:58:56;;;;;;;39.10;19.90;;;;;;;0.79;100.00;101786.54;1724292;83;21084;-66
2022/10/17 05:01:24;;;;;;;34.43;18.90;;;;;;;0.88;100.00;101782.92;1721904;83;21437;-66
2022/10/17 05:03:52;;;;;;;32.25;18.92;;;;;;;1.05;100.00;101786.86;1724294;83;21037;-66
2022/10/17 05:06:23;;;;;;;30.90;16.85;;;;;;;1.05;100.00;101786.86;1724341;83;21053;-65
2022/10/17 05:08:52;;;;;;;37.13;17.37;;;;;;;1.17;100.00;101795.40;1724048;83;21093;-66
2022/10/17 05:11:25;;;;;;;43.00;18.05;;;;;;;1.28;100.00;101796.14;1724517;83;21046;-66
2022/10/17 05:13:59;;;;;;;35.45;18.48;;;;;;;1.33;100.00;101798.01;1724144;83;21014;-66
2022/10/17 05:16:28;;;;;;;43.83;21.95;;;;;;;1.37;100.00;101802.45;1724345;83;21111;-67
2022/10/17 05:18:57;;;;;;;43.58;21.55;;;;;;;1.40;100.00;101799.96;1717438;83;21078;-66
2022/10/17 05:21:28;;;;;;;45.40;23.90;;;;;;;1.45;100.00;101811.34;1688782;83;21105;-66
2022/10/17 05:23:55;;;;;;;45.38;24.92;;;;;;;1.57;100.00;101813.81;1717107;83;21120;-67
2022/10/17 05:26:22;;;;;;;47.30;23.30;;;;;;;2.04;100.00;101810.25;1716774;83;21112;-64
2022/10/17 05:28:51;;;;;;;49.98;24.63;;;;;;;2.85;100.00;101808.64;1716796;83;21605;-65
2022/10/17 05:31:18;;;;;;;42.40;21.70;;;;;;;3.80;100.00;101811.83;1717108;83;21269;-65
2022/10/17 05:33:47;;;;;;;38.83;22.55;;;;;;;4.81;100.00;101808.61;1716739;83;21037;-67
2022/10/17 05:36:14;;;;;;;39.27;19.75;;;;;;;5.79;100.00;101802.31;1716879;83;21014;-66
2022/10/17 05:38:42;;;;;;;42.45;22.35;;;;;;;6.66;100.00;101798.22;1716964;83;21094;-65
2022/10/17 05:41:10;;;;;;;33.28;20.45;;;;;;;7.54;100.00;101794.19;1717020;83;21109;-65
2022/10/17 05:43:38;;;;;;;37.33;20.80;;;;;;;8.30;100.00;101793.80;1717130;83;21266;-65
2022/10/17 05:46:05;;;;;;;33.75;17.75;;;;;;;8.98;100.00;101787.53;1693138;83;21174;-65
2022/10/17 05:48:33;;;;;;;27.85;17.40;;;;;;;9.59;100.00;101795.98;1688136;84;21072;-66
2022/10/17 05:51:06;;;;;;;36.20;18.75;;;;;;;10.14;99.41;101798.20;1688429;84;21622;-66
2022/10/17 05:53:39;;;;;;;28.98;17.80;;;;;;;10.69;96.28;101808.23;1688342;84;21530;-67
2022/10/17 05:56:11;;;;;;;27.17;16.65;;;;;;;11.33;94.76;101801.31;1688650;85;21590;-66
2022/10/17 05:58:43;;;;;;;29.57;17.17;;;;;;;11.95;88.63;101801.31;1688468;85;21042;-65
2022/10/17 06:01:12;;;;;;;24.35;14.78;;;;;;;12.39;69.46;101791.75;1688843;84;21017;-66
2022/10/17 06:03:39;;;;;;;24.75;15.48;;;;;;;12.49;61.73;101792.48;1688411;84;21007;-66
2022/10/17 06:06:09;;;;;;;22.60;14.83;;;;;;;12.74;61.02;101788.89;1693897;84;21049;-66
2022/10/17 06:08:38;;;;;;;26.40;17.25;;;;;;;12.93;59.56;101795.14;1688573;85;21553;-66
2022/10/17 06:11:05;;;;;;;30.70;15.10;;;;;;;13.02;58.51;101796.27;1688338;85;21057;-65
2022/10/17 06:13:34;;;;;;;24.05;14.43;;;;;;;13.19;56.99;101794.16;1688418;84;21538;-66
2022/10/17 06:16:03;;;;;;;23.98;14.95;;;;;;;13.20;55.99;101785.77;1688689;84;21527;-66
2022/10/17 06:18:31;;;;;;;27.07;13.78;;;;;;;13.41;55.97;101784.45;1684607;84;21549;-67
2022/10/17 06:21:04;;;;;;;27.13;16.25;;;;;;;13.57;53.96;101796.45;1682093;84;21586;-67
2022/10/17 06:23:31;;;;;;;24.67;14.60;;;;;;;13.78;54.58;101799.48;1681804;84;21042;-65
2022/10/17 06:26:01;;;;;;;23.92;14.00;;;;;;;13.98;53.64;101807.82;1682313;84;21070;-66
2022/10/17 06:28:28;;;;;;;24.37;15.43;;;;;;;14.24;53.75;101808.95;1691582;84;21094;-66
2022/10/17 06:30:56;;;;;;;25.57;14.70;;;;;;;14.45;53.40;101816.36;1681878;85;21078;-66
2022/10/17 06:33:23;;;;;;;26.68;16.52;;;;;;;14.79;51.24;101815.49;1681872;85;21093;-67
2022/10/17 06:35:53;;;;;;;22.93;14.83;;;;;;;15.01;50.47;101804.27;1682110;84;21614;-67
2022/10/17 06:38:21;;;;;;;26.45;15.23;;;;;;;15.13;49.79;101807.88;1682379;84;25942;-65
2022/10/17 06:40:49;;;;;;;23.70;15.30;;;;;;;15.43;49.97;101802.10;1681900;85;21050;-65
2022/10/17 06:43:16;;;;;;;22.87;14.47;;;;;;;15.93;48.52;101810.30;1681972;85;21052;-66
2022/10/17 06:45:47;;;;;;;18.27;12.98;;;;;;;16.10;46.67;101813.75;1690569;84;21160;-65
2022/10/17 06:48:20;;;;;;;23.32;13.20;;;;;;;15.96;45.69;101806.66;1707123;84;21542;-65
2022/10/17 06:50:51;;;;;;;17.12;11.12;;;;;;;16.01;46.75;101812.72;1707861;84;21104;-65
2022/10/17 06:53:20;;;;;;;15.00;9.33;;;;;;;15.99;44.97;101809.24;1706558;84;21081;-68
2022/10/17 06:55:54;;;;;;;16.97;8.93;;;;;;;15.75;45.31;101795.42;1704708;84;21080;-66
2022/10/17 06:58:39;;;;;;;17.15;9.95;;;;;;;15.81;44.71;101796.56;1708144;84;21265;-66
2022/10/17 07:01:17;;;;;;;16.73;10.00;;;;;;;15.73;44.79;101804.32;1706837;84;21054;-66
2022/10/17 07:03:48;;;;;;;13.05;8.93;;;;;;;15.70;45.33;101802.17;1708276;84;21113;-67
2022/10/17 07:06:16;;;;;;;13.80;8.58;;;;;;;15.87;44.51;101806.97;1708079;84;21077;-67
2022/10/17 07:08:45;;;;;;;15.23;8.55;;;;;;;16.19;43.87;101803.70;1683747;84;21097;-67
2022/10/17 07:11:18;;;;;;;18.55;9.38;;;;;;;16.48;43.36;101799.59;1708311;84;21061;-65
2022/10/17 07:13:46;;;;;;;14.87;9.33;;;;;;;16.66;42.51;101791.89;1708098;84;21654;-66
2022/10/17 07:16:13;;;;;;;16.32;9.10;;;;;;;16.71;42.07;101792.59;1708187;84;21514;-66
2022/10/17 07:18:40;;;;;;;15.90;9.58;;;;;;;16.76;41.92;101798.60;1705614;83;21070;-66
2022/10/17 07:21:07;;;;;;;19.55;9.93;;;;;;;16.77;42.17;101802.55;1661681;86;21124;-67
2022/10/17 07:23:36;;;;;;;13.75;8.13;;;;;;;16.77;41.58;101805.64;1703304;84;21177;-65
2022/10/17 07:26:07;;;;;;;16.45;8.73;;;;;;;17.02;41.16;101810.11;1703406;84;21073;-66
2022/10/17 07:28:37;;;;;;;13.10;8.15;;;;;;;17.27;40.41;101814.91;1703492;84;21021;-66
2022/10/17 07:31:08;;;;;;;14.95;8.38;;;;;;;17.39;39.86;101815.79;1702476;84;21090;-68
2022/10/17 07:33:36;;;;;;;12.10;7.90;;;;;;;17.74;39.49;101814.00;1703732;84;21058;-67
2022/10/17 07:36:04;;;;;;;15.45;8.25;;;;;;;18.15;38.86;101821.66;1703538;84;21367;-68
2022/10/17 07:38:30;;;;;;;17.00;9.10;;;;;;;18.46;38.06;101817.67;1703202;84;21022;-65
2022/10/17 07:41:01;;;;;;;11.08;7.70;;;;;;;18.70;37.24;101818.39;1703365;84;21093;-67
2022/10/17 07:43:28;;;;;;;16.90;8.57;;;;;;;18.66;36.09;101813.67;1703757;84;21046;-66
2022/10/17 07:45:55;;;;;;;18.20;8.43;;;;;;;18.57;36.84;101799.41;1693941;84;21101;-65
2022/10/17 07:48:23;;;;;;;16.57;8.30;;;;;;;18.56;36.60;101793.66;1659423;86;21155;-66
2022/10/17 07:50:50;;;;;;;14.18;9.35;;;;;;;18.59;36.87;101800.69;1663814;86;22248;-66
2022/10/17 07:53:17;;;;;;;16.05;8.28;;;;;;;18.92;36.68;101807.67;1688639;85;22042;-67
2022/10/17 07:55:45;;;;;;;13.28;8.13;;;;;;;19.26;35.95;101793.63;1664010;86;21045;-66
2022/10/17 07:58:12;;;;;;;14.63;8.55;;;;;;;19.65;35.27;101789.13;1688691;85;21049;-67
2022/10/17 08:00:39;;;;;;;14.18;7.60;;;;;;;19.89;34.65;101794.62;1664009;86;21917;-66
2022/10/17 08:03:07;;;;;;;13.60;7.42;;;;;;;20.09;34.81;101788.76;1688700;85;21053;-66
2022/10/17 08:05:34;;;;;;;15.25;8.10;;;;;;;20.27;33.46;101785.14;1664057;85;21065;-66
2022/10/17 08:08:00;;;;;;;13.53;6.85;;;;;;;20.48;33.77;101780.48;1688806;85;21019;-66
2022/10/17 08:10:29;;;;;;;12.80;6.87;;;;;;;20.76;32.52;101779.53;1663977;86;21056;-66
2022/10/17 08:12:57;;;;;;;13.38;6.80;;;;;;;20.70;32.33;101780.70;1688526;85;21152;-66
2022/10/17 08:15:24;;;;;;;11.48;6.78;;;;;;;20.79;32.30;101778.87;1663984;86;21105;-67
2022/10/17 08:17:51;;;;;;;12.90;7.17;;;;;;;21.15;31.93;101779.17;1688629;85;21057;-67
2022/10/17 08:20:19;;;;;;;14.38;7.40;;;;;;;21.23;32.06;101774.71;1700219;84;21090;-66
2022/10/17 08:22:54;;;;;;;18.12;7.20;;;;;;;21.41;31.66;101767.50;1700206;84;21755;-66
2022/10/17 08:25:20;;;;;;;14.63;7.50;;;;;;;21.40;31.41;101765.75;1700281;84;21277;-68
2022/10/17 08:27:48;;;;;;;11.63;6.30;;;;;;;20.88;31.21;101766.81;1700045;84;21061;-67
2022/10/17 08:30:16;;;;;;;12.47;5.83;;;;;;;20.65;31.95;101762.22;1700145;84;21054;-67
2022/10/17 08:32:42;;;;;;;13.13;6.67;;;;;;;20.88;31.57;101761.45;1685826;85;21042;-66
2022/10/17 08:35:09;;;;;;;15.65;6.67;;;;;;;20.96;31.29;101764.59;1700164;84;21110;-67
2022/10/17 08:37:37;;;;;;;17.92;7.25;;;;;;;21.12;31.50;101761.94;1700491;84;21129;-68
2022/10/17 08:40:05;;;;;;;14.95;6.90;;;;;;;21.44;31.23;101749.44;1699921;84;21062;-68
2022/10/17 08:42:58;;;;;;;14.45;6.08;;;;;;;21.81;30.43;101753.13;1700414;84;21058;-66
2022/10/17 08:45:32;;;;;;;14.75;6.45;;;;;;;21.99;30.25;101756.95;1709730;83;21053;-67
2022/10/17 08:48:01;;;;;;;13.95;6.62;;;;;;;21.91;30.13;101748.97;1717421;83;21172;-67
2022/10/17 08:50:50;;;;;;;9.95;5.20;;;;;;;22.00;30.56;101737.69;1717243;83;21234;-66
2022/10/17 08:53:28;;;;;;;19.80;7.12;;;;;;;21.89;30.43;101737.46;1694661;84;21022;-68
2022/10/17 08:55:56;;;;;;;12.63;6.60;;;;;;;21.84;30.76;101745.78;1717234;83;21060;-68
2022/10/17 08:58:31;;;;;;;14.60;6.20;;;;;;;21.84;30.47;101744.44;1717149;83;21054;-67
2022/10/17 09:01:12;;;;;;;12.78;6.20;;;;;;;21.96;30.03;101738.34;1717102;83;21572;-67
2022/10/17 09:04:22;;;;;;;13.22;5.97;;;;;;;21.30;30.12;101728.75;1717517;83;21971;-67
2022/10/17 09:07:16;;;;;;;11.80;5.87;;;;;;;20.96;31.25;101732.45;1717320;83;21100;-66
2022/10/17 09:12:59;;;;;;;16.95;8.48;;;;;;;20.51;32.00;101740.17;1868548;76;21968;-66
2022/10/17 09:15:54;;;;;;;12.07;5.55;;;;;;;20.63;31.52;101745.37;1825629;78;21560;-67
2022/10/17 09:18:28;;;;;;;10.55;4.90;;;;;;;20.80;31.25;101744.93;1825720;78;21155;-66
2022/10/17 09:21:23;;;;;;;16.93;5.55;;;;;;;20.88;31.37;101745.39;1824374;78;20981;-67
2022/10/17 09:23:54;;;;;;;13.80;5.30;;;;;;;21.19;31.04;101742.34;1804344;78;21583;-67
2022/10/17 09:26:21;;;;;;;14.73;6.17;;;;;;;21.28;30.40;101743.16;1821643;78;24941;-66
2022/10/17 09:28:57;;;;;;;12.35;5.90;;;;;;;21.56;30.17;101739.83;1821241;78;21023;-66
2022/10/17 09:31:34;;;;;;;18.67;9.53;;;;;;;21.76;29.82;101746.23;1821203;78;21106;-68
2022/10/17 09:34:02;;;;;;;16.95;6.95;;;;;;;22.04;29.65;101747.74;1821258;78;20928;-68
2022/10/17 09:36:32;;;;;;;20.75;5.70;;;;;;;21.96;29.40;101751.75;1821313;78;21071;-67
2022/10/17 09:39:19;;;;;;;14.65;5.17;;;;;;;21.81;29.17;101749.11;1821642;78;21016;-67
2022/10/17 09:41:54;;;;;;;7.62;4.90;;;;;;;21.33;29.90;101736.61;1821480;78;21055;-68
2022/10/17 09:44:38;;;;;;;9.58;4.85;;;;;;;21.15;30.58;101741.19;1818185;78;21042;-66
2022/10/17 09:47:25;;;;;;;18.80;5.85;;;;;;;21.11;30.43;101738.76;1789002;80;21111;-67
2022/10/17 09:49:52;;;;;;;12.85;5.00;;;;;;;21.20;30.53;101735.56;1788754;80;21616;-67
2022/10/17 09:52:35;;;;;;;15.25;5.10;;;;;;;21.41;30.08;101737.53;1789038;79;21075;-67
2022/10/17 09:55:22;;;;;;;8.58;5.03;;;;;;;21.61;29.72;101736.88;1789208;79;21028;-67
2022/10/17 09:58:00;;;;;;;14.38;5.17;;;;;;;21.68;29.71;101736.42;1787288;80;21556;-68
2022/10/17 10:00:35;;;;;;;8.50;4.90;;;;;;;21.96;29.60;101737.00;1789126;80;21025;-66
2022/10/17 10:03:18;;;;;;;16.25;4.87;;;;;;;21.82;29.32;101735.61;1789025;80;21579;-66
2022/10/17 10:06:04;;;;;;;10.95;4.80;;;;;;;21.63;29.47;101731.81;1789125;80;21593;-69
2022/10/17 10:08:37;;;;;;;8.65;4.40;;;;;;;21.54;29.51;101734.55;1788959;79;21099;-68
2022/10/17 10:11:06;;;;;;;13.70;5.08;;;;;;;21.50;29.89;101730.30;1758559;80;21069;-68
2022/10/17 10:13:34;;;;;;;10.48;4.85;;;;;;;21.63;29.35;101728.28;1801990;78;21043;-67
2022/10/17 10:16:23;;;;;;;8.60;5.00;;;;;;;21.71;29.14;101720.63;1821500;78;21024;-65
2022/10/17 10:18:51;;;;;;;11.23;4.93;;;;;;;21.55;29.67;101726.88;1790347;78;21071;-68
2022/10/17 10:21:23;;;;;;;8.20;4.55;;;;;;;21.14;29.99;101716.70;1821271;78;21063;-68
2022/10/17 10:24:13;;;;;;;10.23;5.10;;;;;;;21.05;30.09;101710.97;1820858;78;21203;-67
2022/10/17 10:26:45;;;;;;;;;;;;;;;21.20;29.86;101719.49;1823391;78;20966;-67
2022/10/17 10:29:35;;;;;;;;;;;;;;;20.85;30.00;101708.08;1823388;78;20187;-67
2022/10/17 10:32:26;;;;;;;12.15;5.45;;;;;;;20.81;29.96;101711.39;1820753;78;20174;-67
2022/10/17 10:34:57;;;;;;;10.15;4.67;;;;;;;20.89;30.02;101709.61;1820541;78;21123;-67
2022/10/17 10:37:35;;;;;;;10.32;5.40;;;;;;;21.30;29.92;101715.81;1820791;78;21233;-69
2022/10/17 10:40:05;;;;;;;10.10;5.20;;;;;;;21.62;28.87;101731.41;1820178;78;20989;-66
2022/10/17 10:42:38;;;;;;;8.63;4.72;;;;;;;21.70;28.86;101730.98;1820762;78;20995;-65
2022/10/17 10:45:17;;;;;;;10.40;5.22;;;;;;;21.72;28.82;101726.40;1820857;78;21028;-66
2022/10/17 10:47:53;;;;;;;11.15;5.12;;;;;;;21.92;29.10;101718.01;1821025;78;21095;-68
2022/10/17 10:50:33;;;;;;;11.03;5.12;;;;;;;21.96;28.53;101712.86;1820687;78;22185;-68
2022/10/17 10:53:21;;;;;;;13.15;6.72;;;;;;;22.16;28.46;101714.83;1820853;78;21098;-67
2022/10/17 10:56:22;;;;;;;24.82;5.60;;;;;;;22.51;28.07;101711.83;1819564;78;21043;-66
2022/10/17 10:58:53;;;;;;;10.43;4.85;;;;;;;22.98;27.50;101702.58;1820701;78;21041;-67
2022/10/17 11:01:48;;;;;;;9.85;5.05;;;;;;;23.09;27.09;101709.50;1821123;78;21029;-67
2022/10/17 11:04:32;;;;;;;17.02;5.60;;;;;;;22.97;26.98;101716.98;1820896;78;21254;-67
2022/10/17 11:07:16;;;;;;;14.07;7.70;;;;;;;22.79;26.98;101711.81;1820761;78;21026;-65
2022/10/17 11:10:23;;;;;;;16.67;6.60;;;;;;;21.96;27.79;101708.83;1789524;78;21125;-66
2022/10/17 11:12:58;;;;;;;13.58;6.12;;;;;;;21.63;28.41;101694.77;1826619;78;21521;-66
2022/10/17 11:15:42;;;;;;;11.25;5.58;;;;;;;21.21;28.90;101688.20;1827034;78;21540;-67
2022/10/17 11:18:24;;;;;;;12.80;6.10;;;;;;;20.95;29.00;101685.19;1822243;78;21347;-66
2022/10/17 11:21:10;;;;;;;11.48;6.90;;;;;;;20.85;28.75;101678.63;1826825;78;21102;-67
2022/10/17 11:23:49;;;;;;;12.85;6.65;;;;;;;20.86;29.08;101683.02;1826747;78;21008;-67
2022/10/17 11:26:25;;;;;;;15.80;6.55;;;;;;;20.64;29.63;101676.19;1824802;78;21000;-66
2022/10/17 11:28:57;;;;;;;8.68;5.42;;;;;;;20.22;30.46;101672.17;1825495;78;21032;-66
2022/10/17 11:31:39;;;;;;;15.60;6.08;;;;;;;20.01;30.78;101670.13;1827031;78;21220;-67
2022/10/17 11:34:13;;;;;;;9.90;5.80;;;;;;;19.76;31.18;101669.22;1826781;78;21089;-66
2022/10/17 11:36:41;;;;;;;12.68;6.05;;;;;;;19.65;31.20;101656.84;1827112;78;21052;-66
2022/10/17 11:39:35;;;;;;;11.50;6.05;;;;;;;19.81;31.16;101660.97;1827203;78;21595;-67
2022/10/17 11:42:09;;;;;;;17.20;5.28;;;;;;;19.97;30.64;101661.01;1758929;81;21093;-67
2022/10/17 11:44:39;;;;;;;17.40;6.00;;;;;;;20.03;30.71;101656.69;1781569;80;21345;-65
2022/10/17 11:47:30;;;;;;;11.22;5.50;;;;;;;20.15;30.30;101651.16;1758037;81;21096;-67